Time;durP1;ratioP1;P1;durP2;ratioP2;P2;SDS_P1;SDS_P2;PMS_P1;PMS_P2;Temp;Humidity;BMP_temperature;BMP_pressure;BME280_temperature;BME280_humidity;BME280_pressure;Samples;Min_cycle;Max_cycle;Signal;HPM_P1;HPM_P2
2021/11/18 00:00:49;;;;;;;78.00;36.57;;;4.40;99.90;;;;;;5054928;28;20186;-81
2021/11/18 00:03:15;;;;;;;75.97;37.77;;;4.40;99.90;;;;;;5072656;28;20250;-81
2021/11/18 00:05:42;;;;;;;77.73;37.33;;;4.40;99.90;;;;;;5038738;28;20214;-81
2021/11/18 00:08:08;;;;;;;79.27;36.50;;;4.40;99.90;;;;;;5055259;28;20172;-81
2021/11/18 00:10:45;;;;;;;72.67;36.90;;;4.40;99.90;;;;;;5038107;28;20178;-83
2021/11/18 00:18:21;;;;;;;75.53;37.83;;;4.50;99.90;;;;;;5030817;28;20294;-81
2021/11/18 00:20:49;;;;;;;67.63;35.50;;;4.50;99.90;;;;;;5033126;28;20644;-82
2021/11/18 00:23:16;;;;;;;79.37;37.53;;;4.50;99.90;;;;;;5031764;28;20180;-82
2021/11/18 00:25:42;;;;;;;72.13;36.40;;;4.50;99.90;;;;;;5032683;28;20543;-81
2021/11/18 00:28:07;;;;;;;77.83;38.07;;;4.50;99.90;;;;;;5031469;28;20180;-81
2021/11/18 00:30:34;;;;;;;80.93;39.00;;;4.60;99.90;;;;;;5034986;28;20253;-81
2021/11/18 00:33:00;;;;;;;76.67;38.60;;;4.60;99.90;;;;;;5036372;28;20167;-80
2021/11/18 00:35:29;;;;;;;77.20;37.37;;;4.60;99.90;;;;;;5035207;28;20243;-80
2021/11/18 00:37:55;;;;;;;71.73;36.47;;;4.60;99.90;;;;;;5035099;28;20168;-81
2021/11/18 00:40:27;;;;;;;78.93;39.30;;;4.60;99.90;;;;;;5035332;28;20285;-81
2021/11/18 00:42:53;;;;;;;77.43;37.80;;;4.60;99.90;;;;;;5036233;28;20612;-81
2021/11/18 00:45:21;;;;;;;76.43;38.17;;;4.50;99.90;;;;;;5034836;28;20187;-81
2021/11/18 00:47:49;;;;;;;83.67;39.13;;;4.50;99.90;;;;;;5036157;28;20204;-87
2021/11/18 00:50:16;;;;;;;77.13;39.43;;;4.60;99.90;;;;;;5035894;28;20234;-81
2021/11/18 00:52:42;;;;;;;81.30;39.03;;;4.60;99.90;;;;;;5035047;28;20274;-80
2021/11/18 00:55:08;;;;;;;81.60;39.40;;;4.60;99.90;;;;;;5034616;28;20719;-81
2021/11/18 00:57:34;;;;;;;85.87;41.20;;;4.60;99.90;;;;;;5036420;28;20289;-81
2021/11/18 01:00:03;;;;;;;82.43;39.83;;;4.60;99.90;;;;;;5034506;28;20564;-81
2021/11/18 01:02:29;;;;;;;87.90;40.87;;;4.60;99.90;;;;;;5035647;28;20553;-82
2021/11/18 01:04:55;;;;;;;81.77;39.97;;;4.60;99.90;;;;;;5034700;28;20173;-82
2021/11/18 01:07:21;;;;;;;87.87;41.03;;;4.60;99.90;;;;;;5035990;28;20179;-81
2021/11/18 01:09:46;;;;;;;83.10;38.97;;;4.60;99.90;;;;;;5034512;28;20579;-81
2021/11/18 01:12:12;;;;;;;82.20;37.30;;;4.60;99.90;;;;;;5018072;28;20231;-81
2021/11/18 01:14:38;;;;;;;88.73;41.50;;;4.60;99.90;;;;;;5018096;28;20212;-82
2021/11/18 01:17:05;;;;;;;84.80;39.77;;;4.70;99.90;;;;;;5034269;28;20232;-81
2021/11/18 01:19:32;;;;;;;82.87;41.63;;;4.70;99.90;;;;;;5035849;28;20183;-81
2021/11/18 01:22:00;;;;;;;90.17;41.70;;;4.60;99.90;;;;;;5035720;28;20187;-81
2021/11/18 01:24:26;;;;;;;78.10;39.63;;;4.60;99.90;;;;;;5035614;28;20173;-82
2021/11/18 01:26:52;;;;;;;90.53;41.33;;;4.50;99.90;;;;;;5035769;28;20243;-82
2021/11/18 01:29:18;;;;;;;89.30;40.77;;;4.50;99.90;;;;;;5034683;28;20181;-81
2021/11/18 01:31:44;;;;;;;87.03;40.57;;;4.40;99.90;;;;;;5034374;28;20543;-81
2021/11/18 01:34:10;;;;;;;83.97;38.83;;;4.50;99.90;;;;;;5034022;28;20211;-81
2021/11/18 01:36:35;;;;;;;84.60;37.53;;;4.50;99.90;;;;;;5034090;28;20199;-81
2021/11/18 01:39:04;;;;;;;87.30;38.87;;;4.40;99.90;;;;;;5017966;28;20181;-82
2021/11/18 01:41:31;;;;;;;82.57;40.87;;;4.40;99.90;;;;;;5034604;28;20174;-81
2021/11/18 01:43:59;;;;;;;85.20;40.60;;;4.40;99.90;;;;;;5034115;28;20183;-82
2021/11/18 01:46:35;;;;;;;87.70;40.57;;;4.40;99.90;;;;;;5034055;28;20242;-81
2021/11/18 01:49:04;;;;;;;89.77;40.60;;;4.40;99.90;;;;;;5035484;28;20175;-82
2021/11/18 01:51:38;;;;;;;86.67;40.23;;;4.40;99.90;;;;;;5033990;28;20602;-81
2021/11/18 01:54:05;;;;;;;83.97;41.00;;;4.40;99.90;;;;;;5033561;28;20207;-81
2021/11/18 01:56:33;;;;;;;80.00;36.60;;;4.40;99.90;;;;;;5034779;28;20175;-81
2021/11/18 01:59:08;;;;;;;89.60;42.07;;;4.40;99.90;;;;;;5035086;28;20184;-82
2021/11/18 02:01:34;;;;;;;86.33;38.73;;;4.40;99.90;;;;;;5033945;28;20670;-81
2021/11/18 02:03:59;;;;;;;85.50;41.50;;;4.40;99.90;;;;;;5034547;28;20173;-82
2021/11/18 02:06:27;;;;;;;89.93;41.30;;;4.40;99.90;;;;;;5033372;28;20517;-81
2021/11/18 02:08:52;;;;;;;92.80;41.17;;;4.50;99.90;;;;;;5033696;28;20180;-81
2021/11/18 02:11:27;;;;;;;94.20;41.33;;;2.70;99.90;;;;;;5033425;28;20188;-81
2021/11/18 02:13:55;;;;;;;86.13;41.23;;;4.50;99.90;;;;;;5034926;28;20183;-81
2021/11/18 02:16:22;;;;;;;77.60;35.53;;;4.60;99.90;;;;;;5034241;28;20255;-80
2021/11/18 02:18:48;;;;;;;85.83;39.70;;;4.40;99.90;;;;;;5036191;28;20210;-81
2021/11/18 02:21:15;;;;;;;99.17;41.17;;;4.40;99.90;;;;;;5021822;28;20198;-81
2021/11/18 02:23:50;;;;;;;94.17;40.23;;;4.40;99.90;;;;;;5038705;28;20176;-80
2021/11/18 02:26:18;;;;;;;89.47;42.67;;;4.40;99.90;;;;;;5037796;28;20565;-81
2021/11/18 02:28:46;;;;;;;90.47;39.27;;;4.40;99.90;;;;;;5040084;28;20627;-81
2021/11/18 02:31:24;;;;;;;81.60;37.67;;;4.40;99.90;;;;;;5052097;28;20180;-82
2021/11/18 02:33:52;;;;;;;97.87;40.70;;;4.40;99.90;;;;;;5058420;28;20191;-81
2021/11/18 02:36:18;;;;;;;80.73;34.37;;;4.40;99.90;;;;;;5058249;28;20222;-82
2021/11/18 02:38:44;;;;;;;72.70;33.23;;;4.50;99.90;;;;;;5058261;28;20196;-80
2021/11/18 02:41:11;;;;;;;86.30;36.80;;;4.50;99.90;;;;;;5040439;28;20311;-81
2021/11/18 02:43:38;;;;;;;89.93;42.03;;;4.50;99.90;;;;;;5052735;28;20224;-81
2021/11/18 02:46:04;;;;;;;91.07;41.07;;;4.50;99.90;;;;;;5055861;28;20620;-82
2021/11/18 02:48:29;;;;;;;87.03;39.93;;;5.70;99.90;;;;;;5058214;28;20192;-81
2021/11/18 02:50:59;;;;;;;69.03;31.13;;;4.50;99.90;;;;;;5058046;28;20268;-81
2021/11/18 02:53:26;;;;;;;92.13;40.63;;;4.40;99.90;;;;;;5057845;28;20175;-82
2021/11/18 02:55:53;;;;;;;99.47;40.53;;;4.50;99.90;;;;;;5052309;28;20220;-81
2021/11/18 02:58:20;;;;;;;89.33;39.87;;;4.50;99.90;;;;;;5043931;28;20310;-82
2021/11/18 03:00:53;;;;;;;91.27;41.57;;;4.50;99.90;;;;;;5037638;28;20568;-81
2021/11/18 03:03:19;;;;;;;84.93;40.53;;;4.50;99.90;;;;;;5037003;28;20173;-81
2021/11/18 03:05:47;;;;;;;88.47;41.53;;;4.50;99.90;;;;;;5034304;28;20242;-81
2021/11/18 03:08:13;;;;;;;88.10;40.07;;;4.50;99.90;;;;;;5015868;28;20544;-81
2021/11/18 03:10:40;;;;;;;88.50;41.60;;;4.50;99.90;;;;;;5033492;28;20176;-80
2021/11/18 03:13:06;;;;;;;86.37;39.63;;;4.50;99.90;;;;;;5033618;28;20173;-81
2021/11/18 03:15:32;;;;;;;95.27;40.87;;;4.50;99.90;;;;;;5033712;28;20217;-81
2021/11/18 03:17:57;;;;;;;93.83;41.17;;;4.50;99.90;;;;;;5033783;28;20220;-81
2021/11/18 03:20:26;;;;;;;90.90;41.13;;;4.50;99.90;;;;;;5032333;28;20184;-81
2021/11/18 03:22:52;;;;;;;87.90;38.40;;;4.50;99.90;;;;;;5033662;28;20267;-81
2021/11/18 03:25:23;;;;;;;87.03;38.47;;;4.60;99.90;;;;;;5033423;28;20223;-81
2021/11/18 03:27:49;;;;;;;88.77;39.30;;;4.60;99.90;;;;;;5033416;28;20249;-81
2021/11/18 03:30:22;;;;;;;88.30;39.43;;;4.60;99.90;;;;;;5032388;28;20187;-81
2021/11/18 03:32:48;;;;;;;92.00;40.30;;;4.60;99.90;;;;;;5033556;28;20221;-81
2021/11/18 03:35:14;;;;;;;86.57;39.00;;;4.70;99.90;;;;;;5032105;28;20333;-81
2021/11/18 03:37:40;;;;;;;96.30;39.27;;;4.70;99.90;;;;;;5032036;28;20180;-81
2021/11/18 03:40:10;;;;;;;100.27;40.93;;;4.70;99.90;;;;;;5031884;28;20177;-81
2021/11/18 03:42:35;;;;;;;92.83;40.83;;;4.70;99.90;;;;;;5033338;28;20176;-81
2021/11/18 03:45:02;;;;;;;86.20;38.63;;;4.70;99.90;;;;;;5033103;28;20636;-81
2021/11/18 03:47:27;;;;;;;86.37;36.73;;;4.60;99.90;;;;;;5031970;28;20192;-81
2021/11/18 03:49:53;;;;;;;85.00;40.47;;;4.60;99.90;;;;;;5015742;28;20196;-81
2021/11/18 03:52:19;;;;;;;88.37;40.83;;;4.70;99.90;;;;;;5031906;28;20215;-81
2021/11/18 03:54:46;;;;;;;85.47;37.37;;;4.90;99.90;;;;;;5032715;28;20680;-81
2021/11/18 03:57:13;;;;;;;86.17;37.43;;;4.80;99.90;;;;;;5033165;28;20208;-81
2021/11/18 03:59:41;;;;;;;84.87;38.90;;;4.80;99.90;;;;;;5032940;28;20671;-81
2021/11/18 04:02:07;;;;;;;83.77;37.90;;;4.80;99.90;;;;;;5033205;28;20191;-81
2021/11/18 04:04:45;;;;;;;89.70;35.47;;;4.80;99.90;;;;;;5034354;28;20238;-81
2021/11/18 04:07:12;;;;;;;90.93;36.83;;;4.80;99.90;;;;;;5036975;28;20268;-82
2021/11/18 04:09:39;;;;;;;78.10;35.23;;;4.80;99.90;;;;;;5035693;28;20583;-82
2021/11/18 04:12:06;;;;;;;83.80;36.87;;;4.80;99.90;;;;;;5036936;28;20180;-82
2021/11/18 04:14:36;;;;;;;87.17;37.83;;;4.80;99.90;;;;;;5036398;28;20295;-83
2021/11/18 04:17:02;;;;;;;82.87;36.97;;;4.90;99.90;;;;;;5036529;28;20227;-81
2021/11/18 04:19:28;;;;;;;74.67;32.87;;;4.80;99.90;;;;;;5018943;28;20215;-82
2021/11/18 04:21:55;;;;;;;83.03;37.20;;;4.80;99.90;;;;;;5035527;28;20207;-82
2021/11/18 04:24:25;;;;;;;79.43;35.67;;;4.90;99.90;;;;;;5035065;28;20658;-81
2021/11/18 04:26:52;;;;;;;82.70;39.90;;;4.80;99.90;;;;;;5035550;28;20211;-82
2021/11/18 04:29:27;;;;;;;78.33;35.50;;;4.90;99.90;;;;;;5036123;28;20173;-82
2021/11/18 04:31:59;;;;;;;84.23;35.40;;;4.90;99.90;;;;;;5036681;28;20617;-82
2021/11/18 04:34:25;;;;;;;80.93;36.50;;;4.90;99.90;;;;;;5034941;28;20580;-83
2021/11/18 04:36:51;;;;;;;80.90;35.20;;;5.20;99.90;;;;;;5019122;28;20181;-82
2021/11/18 04:39:17;;;;;;;86.23;36.87;;;4.90;99.90;;;;;;5018572;28;20534;-83
2021/11/18 04:41:43;;;;;;;91.17;40.03;;;4.80;99.90;;;;;;5036110;28;20584;-83
2021/11/18 04:44:09;;;;;;;88.03;37.43;;;4.80;99.90;;;;;;5036249;28;20185;-81
2021/11/18 04:46:36;;;;;;;87.43;37.57;;;4.90;99.90;;;;;;5034818;28;20184;-82
2021/11/18 04:49:03;;;;;;;83.47;35.87;;;4.80;99.90;;;;;;5034625;28;20197;-81
2021/11/18 04:51:29;;;;;;;80.80;35.23;;;4.80;99.90;;;;;;5034865;28;20177;-85
2021/11/18 04:53:56;;;;;;;82.50;35.20;;;4.80;99.90;;;;;;5034592;28;20818;-82
2021/11/18 04:56:23;;;;;;;84.43;35.97;;;4.80;99.90;;;;;;5033544;28;20180;-82
2021/11/18 04:58:48;;;;;;;87.67;36.73;;;4.80;99.90;;;;;;5016683;28;20286;-82
2021/11/18 05:01:15;;;;;;;80.67;32.97;;;4.80;99.90;;;;;;5032599;28;20731;-80
2021/11/18 05:03:42;;;;;;;82.80;36.13;;;4.70;99.90;;;;;;5033815;28;20259;-81
2021/11/18 05:06:08;;;;;;;82.90;34.60;;;4.80;99.90;;;;;;5032707;28;20210;-81
2021/11/18 05:08:34;;;;;;;77.67;35.50;;;4.80;99.90;;;;;;5017119;28;20192;-81
2021/11/18 05:11:00;;;;;;;78.17;34.93;;;4.80;99.90;;;;;;5035425;28;20684;-82
2021/11/18 05:13:29;;;;;;;85.33;35.97;;;4.70;99.90;;;;;;5017021;28;20274;-81
2021/11/18 05:15:57;;;;;;;93.63;36.63;;;4.80;99.90;;;;;;5032813;28;20283;-81
2021/11/18 05:18:24;;;;;;;85.00;34.63;;;4.70;99.90;;;;;;5034913;28;20179;-82
2021/11/18 05:20:51;;;;;;;84.73;36.00;;;4.70;99.90;;;;;;5017238;28;20621;-81
2021/11/18 05:23:17;;;;;;;96.30;36.33;;;4.70;99.90;;;;;;5032914;28;20271;-81
2021/11/18 05:25:43;;;;;;;84.27;34.07;;;4.70;99.90;;;;;;5033100;28;20187;-82
2021/11/18 05:28:09;;;;;;;89.13;33.97;;;4.80;99.90;;;;;;5032827;28;20199;-80
2021/11/18 05:30:35;;;;;;;90.40;36.73;;;4.80;99.90;;;;;;5034179;28;20180;-82
2021/11/18 05:33:06;;;;;;;76.97;29.77;;;4.80;99.90;;;;;;5034850;28;20528;-81
2021/11/18 05:35:33;;;;;;;85.90;35.30;;;4.80;99.90;;;;;;5033163;28;20269;-80
2021/11/18 05:38:02;;;;;;;81.07;33.77;;;4.90;99.90;;;;;;5035355;28;20215;-81
2021/11/18 05:40:28;;;;;;;83.97;34.33;;;4.90;99.90;;;;;;5034216;28;20187;-80
2021/11/18 05:42:54;;;;;;;86.63;35.33;;;4.90;99.90;;;;;;5033977;28;20187;-81
2021/11/18 05:45:27;;;;;;;85.93;36.80;;;4.90;99.90;;;;;;5034685;28;20255;-85
2021/11/18 05:47:53;;;;;;;86.87;34.47;;;5.00;99.90;;;;;;5034208;28;20178;-82
2021/11/18 05:50:21;;;;;;;71.67;29.40;;;5.00;99.90;;;;;;5034429;28;20219;-80
2021/11/18 05:52:47;;;;;;;91.57;35.03;;;5.00;99.90;;;;;;5034203;28;20176;-79
2021/11/18 05:55:16;;;;;;;82.67;37.07;;;5.00;99.90;;;;;;5033536;28;20211;-80
2021/11/18 05:57:42;;;;;;;80.70;33.63;;;5.00;99.90;;;;;;5016217;28;20640;-81
2021/11/18 06:00:11;;;;;;;77.70;32.53;;;5.10;99.90;;;;;;5032574;28;20192;-81
2021/11/18 06:02:37;;;;;;;77.83;33.93;;;5.20;99.90;;;;;;5033724;28;20738;-81
2021/11/18 06:05:04;;;;;;;79.10;34.03;;;5.20;99.90;;;;;;5033855;28;20176;-84
2021/11/18 06:07:31;;;;;;;75.43;33.23;;;5.10;99.90;;;;;;5034485;28;20188;-83
2021/11/18 06:09:57;;;;;;;79.03;32.33;;;5.20;99.90;;;;;;5032958;28;20199;-81
2021/11/18 06:12:24;;;;;;;83.10;34.37;;;5.20;99.90;;;;;;5032863;28;20633;-84
2021/11/18 06:14:50;;;;;;;79.03;32.27;;;5.20;99.90;;;;;;5033975;28;20200;-83
2021/11/18 06:17:16;;;;;;;80.43;35.40;;;5.10;99.90;;;;;;5033451;28;20232;-82
2021/11/18 06:19:42;;;;;;;81.60;34.20;;;5.20;99.90;;;;;;5016718;28;20320;-84
2021/11/18 06:22:09;;;;;;;73.60;32.53;;;5.10;99.90;;;;;;5016116;28;20436;-83
2021/11/18 06:24:35;;;;;;;69.50;29.30;;;5.50;99.90;;;;;;5033561;28;20187;-83
2021/11/18 06:27:01;;;;;;;73.13;31.80;;;5.10;99.90;;;;;;5033753;28;20191;-83
2021/11/18 06:29:30;;;;;;;69.93;31.97;;;5.20;99.90;;;;;;5032322;28;20189;-83
2021/11/18 06:31:59;;;;;;;71.33;31.43;;;5.10;99.90;;;;;;5033774;28;20223;-83
2021/11/18 06:34:26;;;;;;;79.80;31.50;;;5.20;99.90;;;;;;5032333;28;20243;-84
2021/11/18 06:36:52;;;;;;;65.83;29.80;;;5.20;99.90;;;;;;5033746;28;20180;-83
2021/11/18 06:39:19;;;;;;;68.33;29.37;;;5.20;99.90;;;;;;5033441;28;20180;-83
2021/11/18 06:41:45;;;;;;;69.33;29.43;;;5.20;99.90;;;;;;5033436;28;20280;-83
2021/11/18 06:44:12;;;;;;;72.33;29.10;;;5.30;99.90;;;;;;5032119;28;20283;-84
2021/11/18 06:46:39;;;;;;;66.27;28.03;;;5.30;99.90;;;;;;5032009;28;20193;-83
2021/11/18 06:49:08;;;;;;;65.57;27.90;;;5.30;99.90;;;;;;5032636;28;20684;-85
2021/11/18 06:51:34;;;;;;;55.40;26.40;;;5.30;99.90;;;;;;5032600;28;20223;-85
2021/11/18 06:53:59;;;;;;;56.60;25.30;;;5.30;99.90;;;;;;5031432;28;20188;-83
2021/11/18 06:56:26;;;;;;;63.97;25.50;;;5.40;99.90;;;;;;5031779;28;20192;-84
2021/11/18 06:58:54;;;;;;;53.67;24.60;;;5.40;99.90;;;;;;5032747;28;20200;-84
2021/11/18 07:01:20;;;;;;;56.53;26.53;;;5.50;99.90;;;;;;5032376;28;20537;-83
2021/11/18 07:03:46;;;;;;;44.17;20.07;;;5.40;99.90;;;;;;5032552;28;20266;-84
2021/11/18 07:06:16;;;;;;;53.53;23.53;;;5.50;99.90;;;;;;5033105;28;20271;-84
2021/11/18 07:08:43;;;;;;;46.73;23.23;;;5.50;99.90;;;;;;5033170;28;20177;-86
2021/11/18 07:11:10;;;;;;;50.33;22.83;;;5.50;99.90;;;;;;5031773;28;20540;-84
2021/11/18 07:13:36;;;;;;;42.07;21.43;;;5.50;99.90;;;;;;5015474;28;20185;-84
2021/11/18 07:16:04;;;;;;;37.07;19.43;;;5.60;99.90;;;;;;5032683;28;20262;-85
2021/11/18 07:18:30;;;;;;;46.40;22.23;;;5.50;99.90;;;;;;5032844;28;20184;-85
2021/11/18 07:20:57;;;;;;;44.67;20.47;;;5.50;99.90;;;;;;5032900;28;20249;-84
2021/11/18 07:23:23;;;;;;;44.47;20.63;;;5.70;99.90;;;;;;5032730;28;20200;-84
2021/11/18 07:25:53;;;;;;;42.53;20.13;;;5.60;99.90;;;;;;5031818;28;20194;-83
2021/11/18 07:28:20;;;;;;;41.83;19.80;;;5.60;99.90;;;;;;5032716;28;20176;-86
2021/11/18 07:30:47;;;;;;;40.03;19.27;;;5.60;99.90;;;;;;5031974;28;20176;-83
2021/11/18 07:33:14;;;;;;;44.73;21.03;;;5.60;99.90;;;;;;5032818;28;20169;-85
2021/11/18 07:35:41;;;;;;;40.20;19.30;;;5.60;99.90;;;;;;5032695;28;20212;-83
2021/11/18 07:38:07;;;;;;;36.43;19.23;;;5.70;99.90;;;;;;5032587;28;20306;-83
2021/11/18 07:40:34;;;;;;;38.23;17.33;;;5.80;99.90;;;;;;5036053;28;20218;-83
2021/11/18 07:43:00;;;;;;;36.27;17.17;;;5.80;99.90;;;;;;5035450;28;20195;-83
2021/11/18 07:45:26;;;;;;;46.63;16.83;;;5.90;99.90;;;;;;5036713;28;20180;-83
2021/11/18 07:47:53;;;;;;;40.57;18.20;;;5.80;99.90;;;;;;5035667;28;20183;-83
2021/11/18 07:50:20;;;;;;;30.20;15.77;;;5.90;99.90;;;;;;5018872;28;20185;-83
2021/11/18 07:52:46;;;;;;;25.87;13.67;;;5.90;99.90;;;;;;5035018;28;20176;-82
2021/11/18 07:55:14;;;;;;;28.00;14.70;;;6.00;99.90;;;;;;5035405;28;20211;-83
2021/11/18 07:57:40;;;;;;;23.23;13.80;;;6.00;99.90;;;;;;5036392;28;20184;-85
2021/11/18 08:00:08;;;;;;;31.33;14.67;;;6.00;99.90;;;;;;5034482;28;20648;-83
2021/11/18 08:02:34;;;;;;;27.97;16.27;;;6.00;99.90;;;;;;5035692;28;20533;-83
2021/11/18 08:05:00;;;;;;;24.87;11.97;;;6.00;99.90;;;;;;5035537;28;20227;-81
2021/11/18 08:07:25;;;;;;;25.07;13.57;;;6.10;99.90;;;;;;5034056;28;20226;-83
2021/11/18 08:09:53;;;;;;;26.67;14.10;;;6.20;99.90;;;;;;5036018;28;20747;-82
2021/11/18 08:12:19;;;;;;;25.27;13.37;;;6.20;99.90;;;;;;5035438;28;20177;-82
2021/11/18 08:14:45;;;;;;;23.70;12.80;;;6.30;99.90;;;;;;5035110;28;20212;-83
2021/11/18 08:17:11;;;;;;;24.90;13.17;;;6.30;99.90;;;;;;5035003;28;20228;-83
2021/11/18 08:19:37;;;;;;;19.73;10.07;;;6.30;99.90;;;;;;5036117;28;20205;-84
2021/11/18 08:22:04;;;;;;;25.80;13.20;;;6.20;99.90;;;;;;5036089;28;20181;-83
2021/11/18 08:24:30;;;;;;;22.17;12.53;;;6.30;99.90;;;;;;5036241;28;20176;-82
2021/11/18 08:26:56;;;;;;;18.07;10.67;;;6.30;99.90;;;;;;5036207;28;20263;-81
2021/11/18 08:29:26;;;;;;;22.63;12.23;;;6.40;99.90;;;;;;5034862;28;20227;-84
2021/11/18 08:31:52;;;;;;;27.50;14.40;;;6.50;99.90;;;;;;5036225;28;20485;-83
2021/11/18 08:34:19;;;;;;;20.73;11.77;;;6.50;99.90;;;;;;5036358;28;20209;-82
2021/11/18 08:36:46;;;;;;;25.67;13.20;;;6.50;99.90;;;;;;5018578;28;20180;-82
2021/11/18 08:39:19;;;;;;;26.03;14.27;;;6.60;99.90;;;;;;5035216;28;20187;-82
2021/11/18 08:41:46;;;;;;;21.37;12.30;;;6.60;99.90;;;;;;5036439;28;20252;-81
2021/11/18 08:44:12;;;;;;;24.87;14.50;;;6.70;99.90;;;;;;5036747;28;20176;-82
2021/11/18 08:46:38;;;;;;;22.33;10.63;;;6.70;99.90;;;;;;5036036;28;20230;-82
2021/11/18 08:49:03;;;;;;;24.67;12.57;;;6.70;99.90;;;;;;5017922;28;20553;-83
2021/11/18 08:51:33;;;;;;;21.90;13.10;;;6.70;99.90;;;;;;5033847;28;20184;-82
2021/11/18 08:54:03;;;;;;;18.63;11.23;;;6.80;99.90;;;;;;5034683;28;20176;-83
2021/11/18 08:56:29;;;;;;;21.37;10.77;;;6.80;99.90;;;;;;5036072;28;20164;-83
2021/11/18 08:58:59;;;;;;;26.27;12.30;;;6.80;99.90;;;;;;5034823;28;20180;-82
2021/11/18 09:01:32;;;;;;;18.07;10.57;;;7.10;99.90;;;;;;5036832;28;20628;-82
2021/11/18 09:04:02;;;;;;;24.03;11.70;;;6.80;99.90;;;;;;5048328;28;20184;-82
2021/11/18 09:06:28;;;;;;;20.70;10.50;;;6.70;99.90;;;;;;5055488;28;20177;-84
2021/11/18 09:08:54;;;;;;;20.87;11.13;;;6.70;99.90;;;;;;5057823;28;20240;-82
2021/11/18 09:11:21;;;;;;;14.73;7.53;;;6.70;99.90;;;;;;5057746;28;20192;-83
2021/11/18 09:13:49;;;;;;;27.40;13.17;;;6.70;99.90;;;;;;5057933;28;20180;-92
2021/11/18 09:16:16;;;;;;;20.00;11.33;;;6.70;99.90;;;;;;5058108;28;20232;-89
2021/11/18 09:18:43;;;;;;;18.90;10.77;;;6.60;99.90;;;;;;5058821;28;20236;-90
2021/11/18 09:21:14;;;;;;;25.33;12.47;;;6.60;99.90;;;;;;5059092;28;20180;-89
2021/11/18 09:23:49;;;;;;;22.93;11.57;;;6.60;99.90;;;;;;5058550;28;20165;-83
2021/11/18 09:26:16;;;;;;;20.47;10.57;;;6.60;99.90;;;;;;5053561;28;20172;-82
2021/11/18 09:28:43;;;;;;;20.97;10.57;;;6.60;99.90;;;;;;5055425;28;20168;-86
2021/11/18 09:31:11;;;;;;;20.83;11.63;;;6.60;99.90;;;;;;5040953;28;20208;-93
2021/11/18 09:33:37;;;;;;;21.23;12.40;;;6.50;99.90;;;;;;5057828;28;20190;-92
2021/11/18 09:36:05;;;;;;;27.20;16.47;;;6.50;99.90;;;;;;5057199;28;20228;-92
2021/11/18 09:38:34;;;;;;;18.27;10.23;;;6.60;99.90;;;;;;5056942;28;20160;-92
2021/11/18 09:41:32;;;;;;;17.73;10.80;;;6.50;99.90;;;;;;5057348;28;20226;-93
2021/11/18 09:44:25;;;;;;;27.93;11.47;;;6.50;99.90;;;;;;5020938;28;20288;-82
2021/11/18 09:47:02;;;;;;;21.47;11.13;;;6.50;99.90;;;;;;5033450;28;20220;-86
2021/11/18 09:50:03;;;;;;;21.23;10.33;;;6.50;99.90;;;;;;5036158;28;20168;-88
2021/11/18 09:52:38;;;;;;;19.97;11.30;;;6.50;99.90;;;;;;5034951;28;20176;-83
2021/11/18 09:55:15;;;;;;;22.93;10.97;;;6.70;99.90;;;;;;5033918;28;20208;-83
2021/11/18 09:57:50;;;;;;;19.83;10.63;;;6.70;99.90;;;;;;5033974;28;20223;-84
2021/11/18 10:00:22;;;;;;;18.13;9.67;;;6.70;99.90;;;;;;5034888;28;20160;-82
2021/11/18 10:03:01;;;;;;;20.33;11.30;;;6.80;99.90;;;;;;5032937;28;20196;-83
2021/11/18 10:05:34;;;;;;;22.30;11.37;;;7.00;99.90;;;;;;5032933;28;20188;-82
2021/11/18 10:08:18;;;;;;;22.33;13.20;;;7.10;99.90;;;;;;5034210;28;20639;-83
2021/11/18 10:11:05;;;;;;;18.73;10.20;;;7.20;99.90;;;;;;5034596;28;20299;-82
2021/11/18 10:13:49;;;;;;;20.30;11.57;;;7.00;99.90;;;;;;5033405;28;20212;-82
2021/11/18 10:16:24;;;;;;;20.67;11.00;;;7.00;99.90;;;;;;5034049;28;20246;-82
2021/11/18 10:18:57;;;;;;;16.83;8.87;;;7.00;99.90;;;;;;5032973;28;20184;-81
2021/11/18 10:21:34;;;;;;;14.70;8.77;;;7.10;99.90;;;;;;5033787;28;20161;-83
2021/11/18 10:24:21;;;;;;;15.23;9.70;;;7.00;99.90;;;;;;5033635;28;20188;-82
2021/11/18 10:26:58;;;;;;;16.73;9.57;;;7.00;99.90;;;;;;5032630;28;20263;-83
2021/11/18 10:29:27;;;;;;;17.10;10.07;;;7.00;99.90;;;;;;5033642;28;20809;-85
2021/11/18 10:32:09;;;;;;;16.37;9.67;;;7.00;99.90;;;;;;5031890;28;20172;-83
2021/11/18 10:34:51;;;;;;;15.50;9.17;;;7.00;99.90;;;;;;5033546;28;20192;-82
2021/11/18 10:37:26;;;;;;;15.77;9.00;;;7.00;99.90;;;;;;5031394;28;20211;-84
2021/11/18 10:40:12;;;;;;;24.13;10.93;;;6.90;99.90;;;;;;5033359;28;20627;-82
2021/11/18 10:42:38;;;;;;;20.00;9.77;;;7.00;99.90;;;;;;5032253;28;20181;-82
2021/11/18 10:45:29;;;;;;;19.77;10.33;;;7.00;99.90;;;;;;5031656;28;20663;-82
2021/11/18 10:47:55;;;;;;;22.70;10.17;;;7.00;99.90;;;;;;5033676;28;20165;-83
2021/11/18 10:50:35;;;;;;;24.17;9.93;;;7.00;99.90;;;;;;5033423;28;20176;-81
2021/11/18 10:53:26;;;;;;;16.13;9.63;;;7.00;99.90;;;;;;5033253;28;20214;-82
2021/11/18 10:56:06;;;;;;;17.87;10.03;;;7.00;99.90;;;;;;5026905;28;20224;-83
2021/11/18 10:58:39;;;;;;;18.03;9.47;;;7.00;99.90;;;;;;5034337;28;20180;-82
2021/11/18 11:06:23;;;;;;;20.30;10.13;;;7.10;99.90;;;;;;5467917;22;20662;-82
2021/11/18 11:08:53;;;;;;;18.90;9.73;;;7.00;99.90;;;;;;5092718;28;20199;-82
2021/11/18 11:11:50;;;;;;;23.53;10.40;;;7.10;99.90;;;;;;5092288;28;20188;-82
2021/11/18 11:14:38;;;;;;;17.10;9.87;;;7.10;99.90;;;;;;5084835;28;20167;-81
2021/11/18 11:17:18;;;;;;;21.67;9.30;;;7.00;99.90;;;;;;5089413;28;20224;-81
2021/11/18 11:19:56;;;;;;;20.50;9.43;;;6.90;99.90;;;;;;5089906;28;20658;-81
2021/11/18 11:22:48;;;;;;;17.83;9.37;;;7.00;99.90;;;;;;5079079;28;20186;-82
2021/11/18 11:25:48;;;;;;;15.70;7.83;;;7.00;99.90;;;;;;5087268;28;20243;-83
2021/11/18 11:28:32;;;;;;;16.80;8.60;;;6.80;99.90;;;;;;5082947;28;20743;-81
2021/11/18 11:31:16;;;;;;;16.97;9.53;;;6.80;99.90;;;;;;5089327;28;20230;-81
2021/11/18 11:33:52;;;;;;;15.47;9.60;;;6.80;99.90;;;;;;5090680;28;20278;-82
2021/11/18 11:36:32;;;;;;;16.20;9.90;;;6.80;99.90;;;;;;5090756;28;20207;-81
2021/11/18 11:39:28;;;;;;;19.03;9.33;;;6.80;99.90;;;;;;5091929;28;20182;-82
2021/11/18 11:42:12;;;;;;;20.50;9.50;;;6.90;99.90;;;;;;5075998;28;20191;-84
2021/11/18 11:44:42;;;;;;;17.33;9.97;;;6.90;99.90;;;;;;5071903;28;20194;-81
2021/11/18 11:47:27;;;;;;;18.33;11.60;;;6.90;99.90;;;;;;5085893;28;20186;-87
2021/11/18 11:50:05;;;;;;;18.13;10.17;;;6.90;99.90;;;;;;5091865;28;20178;-82
2021/11/18 11:52:43;;;;;;;17.30;8.70;;;6.90;99.90;;;;;;5092632;28;20186;-81
2021/11/18 11:55:18;;;;;;;18.10;9.03;;;6.90;99.90;;;;;;5094061;28;20684;-81
2021/11/18 11:58:13;;;;;;;20.83;10.67;;;6.90;99.90;;;;;;5093657;28;20186;-81
2021/11/18 12:00:57;;;;;;;24.20;11.70;;;7.00;99.90;;;;;;5087603;28;20561;-82
2021/11/18 12:04:08;;;;;;;19.27;10.33;;;7.00;99.90;;;;;;5085192;28;20177;-80
2021/11/18 12:06:41;;;;;;;21.27;10.23;;;7.00;99.90;;;;;;5090525;28;20219;-82
2021/11/18 12:09:11;;;;;;;18.13;9.90;;;7.00;99.90;;;;;;5106305;28;20195;-82
2021/11/18 12:11:41;;;;;;;18.50;10.50;;;7.00;99.90;;;;;;5097923;28;20171;-82
2021/11/18 12:14:22;;;;;;;22.67;10.20;;;7.00;99.90;;;;;;5091468;28;20381;-82
2021/11/18 12:16:58;;;;;;;21.23;10.73;;;7.00;99.90;;;;;;5104075;28;20189;-81
2021/11/18 12:19:55;;;;;;;15.33;8.37;;;7.00;99.90;;;;;;5082776;28;20175;-81
2021/11/18 12:22:36;;;;;;;21.37;10.37;;;6.90;99.90;;;;;;5058843;28;20183;-81
2021/11/18 12:25:08;;;;;;;19.53;10.70;;;6.90;99.90;;;;;;5087138;28;20274;-82
2021/11/18 12:27:38;;;;;;;18.37;9.90;;;7.00;99.90;;;;;;5103131;28;20186;-82
2021/11/18 12:30:12;;;;;;;20.87;10.27;;;7.00;99.90;;;;;;5116409;28;20166;-83
2021/11/18 12:32:40;;;;;;;22.17;10.47;;;6.90;99.90;;;;;;5105544;28;20233;-82
2021/11/18 12:35:31;;;;;;;23.00;10.70;;;6.90;99.90;;;;;;5113060;28;20210;-82
2021/11/18 12:38:02;;;;;;;19.53;9.40;;;7.00;99.90;;;;;;5112059;28;20187;-82
2021/11/18 12:41:12;;;;;;;22.73;10.07;;;6.90;99.90;;;;;;5112892;28;20249;-81
2021/11/18 12:44:09;;;;;;;20.27;9.43;;;6.90;99.90;;;;;;5110479;28;20213;-83
2021/11/18 12:46:53;;;;;;;14.57;8.30;;;6.90;99.90;;;;;;5105796;28;20197;-83
2021/11/18 12:49:39;;;;;;;20.40;9.20;;;6.90;99.90;;;;;;5112626;28;20626;-84
2021/11/18 12:52:13;;;;;;;20.00;11.10;;;6.90;99.90;;;;;;5111370;28;20162;-83
2021/11/18 12:55:08;;;;;;;15.87;9.10;;;7.00;99.90;;;;;;5115765;27;20334;-85
2021/11/18 12:57:40;;;;;;;18.07;9.63;;;6.90;99.90;;;;;;5108521;28;20206;-89
2021/11/18 13:00:09;;;;;;;18.97;10.10;;;6.90;99.90;;;;;;5115511;28;20198;-82
2021/11/18 13:02:38;;;;;;;19.77;9.20;;;7.00;99.90;;;;;;5084772;28;20204;-83
2021/11/18 13:05:29;;;;;;;16.97;8.67;;;7.00;99.90;;;;;;5086663;28;20182;-83